Amsterdam, MO

10:46 PM CDT on September 01, 2015 (GMT -0500)
KMOAMSTE2 | | Change Station
CLOSE
Current Station
Personal Weather Station
Location: Amsterdam, MO
Elevation: 906 ft
Nearby Weather Stations

Elev 906 ft 38.36 °N, 94.61 °W | Updated 3 seconds ago

Clear
Clear
72.3 °F
Feels Like 77 °F
N
0.0
Wind Variable Wind from North
Gusts 0.0 mph

Today
High -- | Low -- °F
--% Chance of Precip.
Yesterday
High -- | Low -- °F
Precip. -- in
6:47 AM 7:48 PM
Waning Gibbous, 84% visible
Pressure 30.00 in
Visibility 10.0 miles
Clouds Clear
Heat Index 77 °F
Dew Point 53 °F
Humidity 51%
Rainfall 0.00 in
Snow Depth Not available.
UV 0 out of 12
Pollen 10.80 out of 12
Air Quality Not available.
Flu Activity Not available.
METAR KOJC 020253Z AUTO 16007KT 10SM CLR 23/20 A3003 RMK AO2 SLP157 T02280200 53009
Pressure 30.00 in
Visibility 10.0 miles
Clouds Clear
Heat Index 77 °F
Dew Point 53 °F
Humidity 51%
Rainfall 0.00 in
Snow Depth Not available.
UV 0 out of 12
Pollen 10.80 out of 12
Air Quality Not available.
Flu Activity Not available.
METAR KOJC 020253Z AUTO 16007KT 10SM CLR 23/20 A3003 RMK AO2 SLP157 T02280200 53009

10-Day Weather Forecast

×

Almanac

Astronomy

Sep. 01, 2015 Rise Set
Actual Time
Civil Twilight
Nautical Twilight
Astronomical Twilight
Moon
Length of Visible Light
Length of Day
Tomorrow will be .
, % of the Moon is Illuminated

Today's Extremes

State Highs State Lows

Community

WunderPhotos

Upload Photos

1,851,690 photos uploaded!

WunderBlogs® & News

Nearby

Air Quality

  Air Quality AQ Index Pollutant
Not available.

Snow Depth

Station Depth Elevation

Earthquake Activity

City Distance Mag. Time & Date
Minimum magnitude displayed is 2.5.

Coastal Water Temperatures

Place Temperature

Stations

Nearby Weather Stations

Station Location Temp. Windchill Dew Point Humidity Wind Precip. Elev Updated Type